createdAt,value
2022-10-30T08:40:40.842Z,76278.63
2022-10-30T08:46:08.598Z,76240.69
2022-10-30T08:51:34.855Z,76264.66
2022-10-30T08:57:02.352Z,76272.63
2022-10-30T09:02:27.384Z,76248.69
2022-10-30T09:08:10.793Z,76176.81
2022-10-30T09:14:06.720Z,76100.94
2022-10-30T09:19:32.822Z,76059.00
2022-10-30T09:24:57.731Z,76003.13
2022-10-30T09:30:49.246Z,75925.25
2022-10-30T09:36:18.070Z,75819.44
2022-10-30T09:41:56.828Z,75769.53
2022-10-30T09:47:30.181Z,75749.56
2022-10-30T09:53:00.854Z,75621.81
2022-10-30T09:58:31.172Z,75627.81
2022-10-30T10:04:03.832Z,75633.78
2022-10-30T10:09:42.290Z,75661.75
2022-10-30T10:15:28.386Z,75701.66
2022-10-30T10:20:58.532Z,75669.72
2022-10-30T10:26:30.577Z,75561.94
2022-10-30T10:32:00.096Z,75567.91
2022-10-30T10:37:33.283Z,75697.69
2022-10-30T10:43:11.271Z,75733.59
2022-10-30T10:48:46.116Z,75687.69
2022-10-30T10:54:17.164Z,75569.91
2022-10-30T10:59:44.956Z,75518.00
2022-10-30T11:05:11.928Z,75563.94
2022-10-30T11:10:39.853Z,75462.13
2022-10-30T11:16:09.671Z,75426.19
2022-10-30T11:21:37.529Z,75430.19
2022-10-30T11:27:21.989Z,75422.19
2022-10-30T11:32:47.590Z,75438.16
2022-10-30T11:38:16.544Z,75406.22
2022-10-30T11:43:44.673Z,75406.22
2022-10-30T11:49:09.562Z,75344.34
2022-10-30T11:54:38.275Z,75286.47
2022-10-30T12:00:07.185Z,75326.38
2022-10-30T12:05:40.777Z,75398.25
2022-10-30T12:11:08.323Z,75522.00
2022-10-30T12:16:36.229Z,75601.84
2022-10-30T12:22:01.584Z,75605.84
2022-10-30T12:27:27.358Z,75579.91
2022-10-30T12:32:56.856Z,75557.94
2022-10-30T12:38:24.799Z,75577.91
2022-10-30T12:43:54.906Z,75589.88
2022-10-30T12:49:26.172Z,75621.81
2022-10-30T12:54:53.503Z,75681.69
2022-10-30T13:00:19.119Z,75725.63
2022-10-30T13:11:39.241Z,75693.69
2022-10-30T13:17:03.954Z,75721.63
2022-10-30T13:22:33.797Z,75757.56
2022-10-30T13:28:02.753Z,75625.81
2022-10-30T13:33:30.736Z,75436.16
2022-10-30T13:39:02.049Z,75470.09
2022-10-30T13:44:32.529Z,75516.03
2022-10-30T13:50:20.608Z,75522.00
2022-10-30T13:55:48.889Z,75657.75
2022-10-30T14:01:19.736Z,75759.56
2022-10-30T14:06:50.858Z,75841.41
2022-10-30T14:12:30.609Z,75901.31
2022-10-30T14:18:10.506Z,75927.25
2022-10-30T14:23:39.133Z,75949.22
2022-10-30T14:29:23.830Z,75969.19
2022-10-30T14:35:00.174Z,75967.19
2022-10-30T14:40:37.533Z,75953.19
2022-10-30T14:46:04.335Z,75937.22
2022-10-30T14:51:40.720Z,75937.22
2022-10-30T14:57:05.654Z,75925.25
2022-10-30T15:02:38.924Z,75907.28
2022-10-30T15:08:14.039Z,75921.25
2022-10-30T15:13:38.918Z,75945.22
2022-10-30T15:19:07.418Z,75969.19
2022-10-30T15:24:36.485Z,76009.09
2022-10-30T15:30:04.171Z,76049.03
2022-10-30T15:35:29.621Z,76076.97
2022-10-30T15:40:59.424Z,76106.94
2022-10-30T15:46:24.401Z,76144.88
2022-10-30T15:51:50.159Z,76176.81
2022-10-30T15:57:49.826Z,76216.75
2022-10-30T16:03:06.285Z,76258.66
2022-10-30T16:08:33.883Z,76312.56
2022-10-30T16:14:07.406Z,76356.50
2022-10-30T16:19:33.543Z,76382.44
2022-10-30T16:24:59.558Z,76408.41
2022-10-30T16:30:29.479Z,76418.41
2022-10-30T16:35:55.944Z,76432.38
2022-10-30T16:41:26.791Z,76452.34
2022-10-30T16:46:56.443Z,76470.31
2022-10-30T16:52:24.072Z,76502.25
2022-10-30T16:57:50.840Z,76510.25
2022-10-30T17:03:18.375Z,76540.19
2022-10-30T17:08:44.470Z,76544.19
2022-10-30T17:14:19.702Z,76556.16
2022-10-30T17:19:51.577Z,76572.13
2022-10-30T17:25:20.548Z,76580.13
2022-10-30T17:30:45.768Z,76584.13
2022-10-30T17:36:14.207Z,76586.13
2022-10-30T17:41:39.370Z,76598.09
2022-10-30T17:47:10.880Z,76608.06
2022-10-30T17:52:38.260Z,76608.06
2022-10-30T17:58:03.187Z,76620.06
2022-10-30T18:03:28.414Z,76628.03
2022-10-30T18:08:56.162Z,76656.00
2022-10-30T18:14:21.008Z,76687.94
2022-10-30T18:19:45.825Z,76707.91
2022-10-30T18:25:18.442Z,76727.88
2022-10-30T18:30:43.488Z,76747.84
2022-10-30T18:36:09.596Z,76759.84
2022-10-30T18:41:38.131Z,76763.81
2022-10-30T18:47:05.355Z,76779.81
2022-10-30T18:52:30.139Z,76795.78
2022-10-30T18:57:57.757Z,76811.75
2022-10-30T19:03:22.933Z,76811.75
2022-10-30T19:08:48.038Z,76823.72
2022-10-30T19:14:16.600Z,76827.72
2022-10-30T19:19:41.681Z,76835.72
2022-10-30T19:25:15.021Z,76855.69
2022-10-30T19:30:42.903Z,76859.66
2022-10-30T19:36:08.201Z,76875.66
2022-10-30T19:41:33.081Z,76903.59
2022-10-30T19:47:00.527Z,76923.56
2022-10-30T19:52:29.162Z,76957.53
2022-10-30T19:57:54.632Z,76977.50
2022-10-30T20:03:22.260Z,76991.47
2022-10-30T20:08:47.155Z,76991.47
2022-10-30T20:14:11.979Z,76999.47
2022-10-30T20:19:39.393Z,77017.44
2022-10-30T20:25:04.275Z,77037.41
2022-10-30T20:30:29.036Z,77049.38
2022-10-30T20:35:57.319Z,77047.38
2022-10-30T20:41:23.582Z,77059.38
2022-10-30T20:46:48.429Z,77063.34
2022-10-30T20:52:15.804Z,77063.34
2022-10-30T20:57:41.010Z,77079.34
2022-10-30T21:03:06.280Z,77087.31
2022-10-30T21:08:34.160Z,77087.31
2022-10-30T21:13:59.111Z,77115.28
2022-10-30T21:19:23.920Z,77135.25
2022-10-30T21:24:51.251Z,77159.22
2022-10-30T21:30:16.442Z,77171.19
2022-10-30T21:35:41.279Z,77183.19
2022-10-30T21:41:08.793Z,77179.19
2022-10-30T21:46:34.177Z,77167.19
2022-10-30T21:51:59.161Z,77167.19
2022-10-30T21:57:26.543Z,77179.19
2022-10-30T22:02:53.198Z,77187.16
2022-10-30T22:08:20.023Z,77193.16
2022-10-30T22:13:47.840Z,77187.16
2022-10-30T22:19:13.498Z,77187.16
2022-10-30T22:24:38.382Z,77203.16
2022-10-30T22:30:05.811Z,77215.13
2022-10-30T22:35:30.530Z,77227.13
2022-10-30T22:40:55.355Z,77267.06
2022-10-30T22:46:22.865Z,77311.00
2022-10-30T22:51:47.790Z,77336.94
2022-10-30T22:57:12.692Z,77352.94
2022-10-30T23:02:40.063Z,77374.91
2022-10-30T23:08:04.834Z,77364.91
2022-10-30T23:13:29.609Z,77354.91
2022-10-30T23:18:57.835Z,77378.88
2022-10-30T23:24:22.905Z,77394.88
2022-10-30T23:29:47.807Z,77414.84
2022-10-30T23:35:15.160Z,77442.78
2022-10-30T23:40:39.990Z,77458.78
2022-10-30T23:46:04.862Z,77478.75
2022-10-30T23:51:32.416Z,77502.72
2022-10-30T23:56:57.140Z,77514.69
